Time;durP1;ratioP1;P1;durP2;ratioP2;P2;SDS_P1;SDS_P2;PMS_P1;PMS_P2;Temp;Humidity;BMP_temperature;BMP_pressure;BME280_temperature;BME280_humidity;BME280_pressure;Samples;Min_cycle;Max_cycle;Signal;HPM_P1;HPM_P2
2022/08/30 00:02:44;;;;;;;9.68;6.03;;;15.70;99.90;;;;;;5063195;28;20037;-72
2022/08/30 00:05:10;;;;;;;7.18;5.03;;;15.70;99.90;;;;;;5075295;28;20528;-74
2022/08/30 00:07:36;;;;;;;9.05;5.88;;;15.70;99.90;;;;;;5074189;28;20116;-73
2022/08/30 00:10:03;;;;;;;7.60;4.63;;;15.70;99.90;;;;;;5057698;28;20097;-73
2022/08/30 00:12:30;;;;;;;7.63;5.53;;;15.70;99.90;;;;;;5042792;28;20040;-73
2022/08/30 00:14:56;;;;;;;7.88;5.13;;;15.70;99.90;;;;;;5030859;28;20377;-73
2022/08/30 00:17:21;;;;;;;7.88;6.05;;;15.70;99.90;;;;;;5056593;28;20037;-73
2022/08/30 00:19:47;;;;;;;9.13;5.90;;;15.70;99.90;;;;;;5040531;28;20045;-73
2022/08/30 00:22:13;;;;;;;8.10;4.72;;;15.70;99.90;;;;;;5059864;28;20052;-75
2022/08/30 00:24:38;;;;;;;7.03;5.45;;;15.70;99.90;;;;;;5050877;28;20047;-74
2022/08/30 00:27:04;;;;;;;7.88;5.50;;;15.70;99.90;;;;;;5020859;28;20075;-73
2022/08/30 00:29:30;;;;;;;8.30;4.90;;;15.70;99.90;;;;;;5071370;28;20123;-73
2022/08/30 00:31:55;;;;;;;7.45;5.35;;;15.70;99.90;;;;;;5027340;28;20049;-74
2022/08/30 00:34:21;;;;;;;7.45;4.28;;;15.70;99.90;;;;;;5061228;28;20052;-73
2022/08/30 00:36:47;;;;;;;6.82;5.50;;;15.70;99.90;;;;;;5039928;28;20046;-73
2022/08/30 00:39:13;;;;;;;8.95;5.45;;;15.70;99.90;;;;;;5062856;28;20088;-73
2022/08/30 00:41:39;;;;;;;8.50;5.60;;;15.70;99.90;;;;;;5038970;28;20508;-75
2022/08/30 00:44:04;;;;;;;9.43;5.30;;;15.70;99.90;;;;;;5039975;28;20036;-74
2022/08/30 00:46:31;;;;;;;7.40;4.15;;;15.70;99.90;;;;;;5054026;28;20451;-74
2022/08/30 00:49:02;;;;;;;7.70;4.82;;;15.70;99.90;;;;;;5039901;28;20067;-74
2022/08/30 00:51:30;;;;;;;7.85;5.43;;;15.70;99.90;;;;;;5037936;28;20098;-74
2022/08/30 00:53:57;;;;;;;7.43;4.97;;;15.60;99.90;;;;;;5034467;28;20372;-73
2022/08/30 00:56:24;;;;;;;8.70;5.63;;;15.60;99.90;;;;;;5034942;28;20384;-74
2022/08/30 00:58:54;;;;;;;9.73;6.18;;;15.60;99.90;;;;;;5040286;28;20318;-75
2022/08/30 01:01:20;;;;;;;8.23;5.03;;;15.60;99.90;;;;;;5037115;28;20048;-73
2022/08/30 01:03:46;;;;;;;11.75;7.18;;;15.60;99.90;;;;;;5042313;28;20043;-74
2022/08/30 01:06:14;;;;;;;9.95;7.38;;;15.60;99.90;;;;;;5036505;28;20033;-74
2022/08/30 01:08:41;;;;;;;12.48;9.35;;;15.60;99.90;;;;;;5036987;28;20032;-74
2022/08/30 01:11:07;;;;;;;9.00;6.25;;;15.50;99.90;;;;;;5037008;28;20048;-74
2022/08/30 01:13:34;;;;;;;7.97;5.03;;;15.50;99.90;;;;;;5017519;28;20107;-74
2022/08/30 01:16:01;;;;;;;10.55;7.57;;;15.50;99.90;;;;;;5020683;28;20523;-73
2022/08/30 01:18:27;;;;;;;9.43;7.00;;;15.50;99.90;;;;;;5015796;28;20079;-74
2022/08/30 01:21:31;;;;;;;9.07;6.75;;;15.40;99.90;;;;;;5038110;28;20472;-74
2022/08/30 01:23:59;;;;;;;9.35;6.65;;;15.40;99.90;;;;;;5016692;28;20037;-74
2022/08/30 01:26:28;;;;;;;8.77;6.65;;;15.40;99.90;;;;;;5019133;28;20461;-74
2022/08/30 01:28:58;;;;;;;13.13;8.20;;;15.40;99.90;;;;;;5016200;28;20372;-74
2022/08/30 01:31:25;;;;;;;9.18;6.88;;;15.40;99.90;;;;;;5018529;28;20049;-75
2022/08/30 01:33:51;;;;;;;9.32;6.53;;;15.30;99.90;;;;;;5032943;28;20535;-73
2022/08/30 01:36:19;;;;;;;12.75;8.90;;;15.30;99.90;;;;;;5030268;28;20037;-73
2022/08/30 01:38:54;;;;;;;9.57;7.35;;;15.20;99.90;;;;;;5015342;28;20041;-74
2022/08/30 01:41:24;;;;;;;10.07;6.00;;;15.30;99.90;;;;;;5015231;28;20121;-75
2022/08/30 01:43:53;;;;;;;9.73;7.05;;;15.20;99.90;;;;;;5014867;28;20033;-73
2022/08/30 01:46:20;;;;;;;10.82;7.82;;;15.30;99.90;;;;;;5015360;28;20116;-74
2022/08/30 01:48:46;;;;;;;9.27;6.38;;;15.20;99.90;;;;;;5031799;28;20052;-74
2022/08/30 01:51:13;;;;;;;8.60;6.30;;;15.20;99.90;;;;;;5017895;28;20045;-74
2022/08/30 01:53:41;;;;;;;10.88;7.72;;;15.10;99.90;;;;;;5031042;28;20041;-76
2022/08/30 01:56:07;;;;;;;11.18;7.60;;;15.10;99.90;;;;;;5020299;28;20064;-74
2022/08/30 01:58:35;;;;;;;9.15;5.97;;;15.10;99.90;;;;;;5029591;28;20487;-73
2022/08/30 02:01:03;;;;;;;10.45;8.75;;;15.10;99.90;;;;;;5016897;28;20473;-73
2022/08/30 02:03:34;;;;;;;13.20;9.13;;;15.10;99.90;;;;;;5015853;28;20042;-74
2022/08/30 02:06:08;;;;;;;12.65;9.85;;;15.10;99.90;;;;;;5015677;28;20404;-73
2022/08/30 02:08:35;;;;;;;12.95;9.23;;;15.10;99.90;;;;;;5014634;28;20033;-74
2022/08/30 02:11:01;;;;;;;12.32;9.48;;;15.00;99.90;;;;;;5030656;28;20051;-73
2022/08/30 02:13:28;;;;;;;10.20;8.02;;;15.00;99.90;;;;;;5036868;28;20430;-74
2022/08/30 02:15:54;;;;;;;10.70;7.95;;;15.00;99.90;;;;;;5034465;28;20098;-75
2022/08/30 02:18:22;;;;;;;9.30;6.55;;;14.90;99.90;;;;;;5034923;28;20088;-74
2022/08/30 02:20:48;;;;;;;9.93;6.82;;;14.90;99.90;;;;;;5051871;28;20127;-73
2022/08/30 02:23:13;;;;;;;11.50;8.95;;;14.90;99.90;;;;;;5037260;28;20124;-73
2022/08/30 02:25:40;;;;;;;10.18;7.97;;;14.90;99.90;;;;;;5053254;28;20060;-75
2022/08/30 02:28:07;;;;;;;10.25;7.88;;;14.90;99.90;;;;;;5043565;28;20097;-74
2022/08/30 02:30:33;;;;;;;10.73;8.50;;;14.90;99.90;;;;;;5045150;28;20044;-74
2022/08/30 02:32:59;;;;;;;8.73;7.30;;;14.90;99.90;;;;;;5035259;28;20537;-73
2022/08/30 02:35:25;;;;;;;11.05;8.65;;;14.90;99.90;;;;;;5049546;28;20032;-74
2022/08/30 02:37:51;;;;;;;9.10;7.43;;;14.80;99.90;;;;;;5072076;28;20391;-73
2022/08/30 02:40:18;;;;;;;9.65;6.20;;;14.80;99.90;;;;;;5055214;28;20049;-73
2022/08/30 02:42:43;;;;;;;9.82;6.72;;;14.80;99.90;;;;;;5054826;28;20044;-75
2022/08/30 02:45:10;;;;;;;9.38;7.57;;;14.80;99.90;;;;;;5044399;28;20032;-77
2022/08/30 02:47:36;;;;;;;9.13;6.30;;;14.80;99.90;;;;;;5055039;28;20048;-75
2022/08/30 02:50:04;;;;;;;9.85;7.82;;;14.80;99.90;;;;;;5049643;28;20053;-76
2022/08/30 02:52:31;;;;;;;10.10;7.93;;;14.80;99.90;;;;;;5042306;28;20420;-74
2022/08/30 02:54:56;;;;;;;11.73;8.38;;;14.70;99.90;;;;;;5039380;28;20039;-75
2022/08/30 02:57:22;;;;;;;9.82;6.90;;;14.70;99.90;;;;;;5043888;28;20120;-74
2022/08/30 02:59:48;;;;;;;9.27;6.00;;;14.70;99.90;;;;;;5055171;28;20044;-74
2022/08/30 03:02:14;;;;;;;8.13;5.30;;;14.70;99.90;;;;;;5034972;28;20100;-74
2022/08/30 03:04:43;;;;;;;10.93;8.13;;;14.70;99.90;;;;;;5055038;28;20125;-73
2022/08/30 03:07:09;;;;;;;10.70;9.32;;;14.70;99.90;;;;;;5065951;28;20469;-74
2022/08/30 03:09:35;;;;;;;8.65;6.57;;;14.70;99.90;;;;;;5054668;28;20037;-75
2022/08/30 03:12:01;;;;;;;10.68;8.15;;;14.60;99.90;;;;;;5034941;28;20508;-74
2022/08/30 03:14:27;;;;;;;8.65;5.60;;;14.50;99.90;;;;;;5034279;28;20092;-74
2022/08/30 03:16:53;;;;;;;9.20;7.63;;;14.50;99.90;;;;;;5034606;28;20549;-74
2022/08/30 03:19:19;;;;;;;11.82;8.07;;;14.50;99.90;;;;;;5029931;28;20163;-74
2022/08/30 03:21:45;;;;;;;11.32;7.95;;;14.50;99.90;;;;;;5054593;28;20480;-74
2022/08/30 03:24:12;;;;;;;10.68;8.60;;;14.40;99.90;;;;;;5054053;28;20067;-74
2022/08/30 03:26:38;;;;;;;9.52;7.55;;;14.40;99.90;;;;;;5070181;28;20044;-74
2022/08/30 03:29:04;;;;;;;13.23;10.32;;;14.30;99.90;;;;;;5038390;28;20049;-75
2022/08/30 03:31:29;;;;;;;7.90;5.90;;;14.30;99.90;;;;;;5072433;28;20166;-75
2022/08/30 03:33:55;;;;;;;9.27;7.95;;;14.20;99.90;;;;;;5067190;28;20055;-75
2022/08/30 03:36:21;;;;;;;13.40;10.70;;;14.20;99.90;;;;;;5037292;28;20472;-75
2022/08/30 03:38:46;;;;;;;15.05;11.85;;;14.10;99.90;;;;;;5062198;28;20033;-75
2022/08/30 03:41:12;;;;;;;12.48;9.57;;;14.10;99.90;;;;;;5075610;28;20040;-74
2022/08/30 03:43:38;;;;;;;12.10;9.68;;;14.00;99.90;;;;;;5057923;28;20089;-75
2022/08/30 03:46:05;;;;;;;11.10;8.65;;;14.00;99.90;;;;;;5057861;28;20041;-75
2022/08/30 03:48:30;;;;;;;11.02;9.05;;;14.00;99.90;;;;;;5059662;28;21286;-76
2022/08/30 03:50:56;;;;;;;9.45;6.40;;;14.00;99.90;;;;;;5069458;28;20048;-74
2022/08/30 03:53:23;;;;;;;8.77;6.97;;;14.00;99.90;;;;;;5042153;28;20048;-75
2022/08/30 03:55:48;;;;;;;12.15;8.88;;;14.00;99.90;;;;;;5062732;28;20044;-75
2022/08/30 03:58:14;;;;;;;13.80;10.05;;;14.00;99.90;;;;;;5065564;28;20067;-74
2022/08/30 04:00:40;;;;;;;10.73;7.55;;;14.00;99.90;;;;;;5057194;28;20361;-75
2022/08/30 04:03:05;;;;;;;10.68;8.82;;;14.00;99.90;;;;;;5044209;28;20041;-75
2022/08/30 04:05:31;;;;;;;12.45;10.10;;;14.00;99.90;;;;;;5050918;28;20048;-74
2022/08/30 04:07:57;;;;;;;11.82;9.25;;;14.00;99.90;;;;;;5037214;28;20166;-75
2022/08/30 04:10:23;;;;;;;11.30;7.82;;;13.90;99.90;;;;;;5015059;28;20044;-75
2022/08/30 04:12:49;;;;;;;10.68;8.52;;;13.90;99.90;;;;;;5034578;28;20130;-75
2022/08/30 04:15:16;;;;;;;10.65;8.90;;;13.90;99.90;;;;;;5029373;28;20460;-75
2022/08/30 04:17:42;;;;;;;10.73;7.20;;;13.90;99.90;;;;;;5051095;28;20095;-75
2022/08/30 04:20:09;;;;;;;9.48;7.25;;;13.90;99.90;;;;;;5031203;28;20044;-76
2022/08/30 04:22:35;;;;;;;11.18;8.93;;;13.80;99.90;;;;;;5056119;28;20040;-75
2022/08/30 04:25:02;;;;;;;11.32;8.80;;;13.80;99.90;;;;;;5057138;28;20048;-75
2022/08/30 04:27:28;;;;;;;10.68;9.05;;;13.80;99.90;;;;;;5023869;28;20067;-75
2022/08/30 04:29:55;;;;;;;11.80;9.45;;;13.70;99.90;;;;;;5070131;28;20040;-75
2022/08/30 04:32:20;;;;;;;13.32;11.00;;;13.70;99.90;;;;;;5049796;28;20091;-74
2022/08/30 04:34:46;;;;;;;12.50;10.32;;;13.70;99.90;;;;;;5021962;28;20045;-75
2022/08/30 04:37:12;;;;;;;13.50;11.70;;;13.60;99.90;;;;;;5065853;28;20036;-75
2022/08/30 04:39:38;;;;;;;12.93;10.25;;;13.50;99.90;;;;;;5076503;28;20383;-75
2022/08/30 04:42:05;;;;;;;18.75;16.13;;;13.50;99.90;;;;;;5066079;28;20069;-77
2022/08/30 04:44:31;;;;;;;16.23;14.50;;;13.50;99.90;;;;;;5056864;28;20044;-76
2022/08/30 04:46:58;;;;;;;18.45;16.10;;;13.40;99.90;;;;;;5039886;28;20041;-76
2022/08/30 04:49:24;;;;;;;15.73;12.82;;;13.30;99.90;;;;;;5061885;28;20044;-76
2022/08/30 04:51:49;;;;;;;15.48;13.00;;;13.30;99.90;;;;;;5040971;28;20043;-76
2022/08/30 04:54:15;;;;;;;17.65;12.45;;;13.30;99.90;;;;;;5061307;28;20047;-76
2022/08/30 04:56:42;;;;;;;14.20;12.48;;;13.30;99.90;;;;;;5060999;28;20166;-76
2022/08/30 04:59:08;;;;;;;15.15;12.75;;;13.20;99.90;;;;;;5045137;28;20045;-76
2022/08/30 05:01:34;;;;;;;14.50;12.82;;;13.20;99.90;;;;;;5038816;28;20052;-76
2022/08/30 05:04:00;;;;;;;16.55;13.07;;;13.20;99.90;;;;;;5053046;28;20056;-76
2022/08/30 05:06:29;;;;;;;16.63;13.75;;;13.10;99.90;;;;;;5038221;28;20036;-76
2022/08/30 05:08:55;;;;;;;13.85;12.32;;;13.10;99.90;;;;;;5037829;28;20032;-76
2022/08/30 05:11:21;;;;;;;14.45;12.95;;;13.40;99.90;;;;;;5043956;28;20040;-77
2022/08/30 05:13:48;;;;;;;13.38;11.98;;;13.10;99.90;;;;;;5073974;28;20063;-76
2022/08/30 05:16:16;;;;;;;14.77;12.13;;;13.00;99.90;;;;;;5043894;28;20033;-73
2022/08/30 05:18:43;;;;;;;15.23;13.63;;;13.00;99.90;;;;;;5046086;28;20392;-76
2022/08/30 05:21:18;;;;;;;13.70;12.25;;;13.10;99.90;;;;;;5037433;28;20052;-77
2022/08/30 05:23:44;;;;;;;19.98;16.67;;;13.10;99.90;;;;;;5053861;28;20357;-77
2022/08/30 05:26:14;;;;;;;15.13;12.88;;;13.10;99.90;;;;;;5055152;28;20048;-76
2022/08/30 05:28:41;;;;;;;16.50;12.82;;;13.10;99.90;;;;;;5042382;28;20053;-77
2022/08/30 05:31:20;;;;;;;13.43;11.77;;;13.00;99.90;;;;;;5052054;28;20045;-75
2022/08/30 05:33:46;;;;;;;13.70;11.32;;;13.10;99.90;;;;;;5045740;28;20070;-76
2022/08/30 05:36:14;;;;;;;14.18;12.57;;;13.00;99.90;;;;;;5055103;28;20476;-77
2022/08/30 05:38:40;;;;;;;14.32;11.98;;;13.10;99.90;;;;;;5035403;28;20444;-77
2022/08/30 05:41:06;;;;;;;14.77;11.02;;;13.10;99.90;;;;;;5050189;28;20075;-77
2022/08/30 05:43:32;;;;;;;15.13;10.98;;;13.10;99.90;;;;;;5055661;28;20048;-75
2022/08/30 05:46:09;;;;;;;14.93;11.82;;;13.10;99.90;;;;;;5055427;28;20375;-75
2022/08/30 05:48:36;;;;;;;14.52;10.90;;;13.10;99.90;;;;;;5045787;28;20040;-77
2022/08/30 05:51:11;;;;;;;16.08;11.25;;;13.10;99.90;;;;;;5041577;28;20068;-76
2022/08/30 05:53:38;;;;;;;14.23;11.43;;;13.10;99.90;;;;;;5036788;28;20049;-76
2022/08/30 05:56:06;;;;;;;15.60;11.80;;;13.10;99.90;;;;;;5055638;28;20047;-76
2022/08/30 05:58:32;;;;;;;12.70;10.95;;;13.10;99.90;;;;;;5052958;28;20049;-77
2022/08/30 06:00:58;;;;;;;14.20;11.60;;;13.10;99.90;;;;;;5055666;28;20063;-75
2022/08/30 06:03:25;;;;;;;14.57;11.40;;;13.20;99.90;;;;;;5053330;28;20036;-76
2022/08/30 06:05:50;;;;;;;15.40;11.70;;;13.20;99.90;;;;;;5038768;28;20060;-76
2022/08/30 06:08:16;;;;;;;12.48;11.18;;;13.40;99.90;;;;;;5067516;28;20478;-76
2022/08/30 06:10:42;;;;;;;12.13;10.13;;;14.00;99.90;;;;;;5053319;28;20036;-74
2022/08/30 06:13:09;;;;;;;10.65;8.77;;;14.40;99.90;;;;;;5054153;28;20506;-75
2022/08/30 06:15:36;;;;;;;12.07;7.55;;;15.20;99.90;;;;;;5074883;28;20048;-75
2022/08/30 06:18:02;;;;;;;10.27;7.28;;;16.10;99.90;;;;;;5053315;28;20041;-76
2022/08/30 06:20:28;;;;;;;9.45;6.15;;;16.90;99.90;;;;;;5032768;28;20045;-74
2022/08/30 06:22:53;;;;;;;9.18;6.00;;;17.60;99.90;;;;;;5053578;28;20524;-75
2022/08/30 06:25:20;;;;;;;13.98;5.93;;;17.90;99.90;;;;;;5055200;28;20531;-74
2022/08/30 06:27:45;;;;;;;12.98;5.68;;;18.50;99.90;;;;;;5054528;28;20083;-76
2022/08/30 06:30:11;;;;;;;9.02;4.80;;;18.90;99.90;;;;;;5059248;28;20072;-75
2022/08/30 06:32:38;;;;;;;7.60;4.03;;;19.60;99.90;;;;;;5061358;28;20048;-76
2022/08/30 06:35:05;;;;;;;7.38;3.78;;;19.40;99.90;;;;;;5052977;28;20212;-73
2022/08/30 06:37:31;;;;;;;8.27;4.43;;;20.10;99.90;;;;;;5085355;28;20044;-78
2022/08/30 06:39:59;;;;;;;7.18;3.90;;;19.70;99.90;;;;;;5067131;28;20105;-76
2022/08/30 06:42:30;;;;;;;6.35;4.20;;;19.70;99.90;;;;;;5051506;28;20047;-75
2022/08/30 06:44:57;;;;;;;6.82;3.50;;;19.10;99.90;;;;;;5065471;28;20468;-73
2022/08/30 06:47:23;;;;;;;7.93;3.30;;;19.50;99.90;;;;;;5024498;28;20072;-79
2022/08/30 06:49:49;;;;;;;8.02;4.20;;;19.70;99.90;;;;;;5045090;28;20436;-76
2022/08/30 06:52:14;;;;;;;8.85;3.10;;;19.80;99.90;;;;;;5068600;28;20048;-72
2022/08/30 06:54:40;;;;;;;7.65;3.40;;;19.80;99.90;;;;;;5069613;28;20040;-75
2022/08/30 06:57:06;;;;;;;7.22;3.72;;;20.30;99.90;;;;;;5052205;28;20075;-74
2022/08/30 06:59:32;;;;;;;7.78;3.92;;;19.70;99.90;;;;;;5084204;28;20052;-74
2022/08/30 07:01:57;;;;;;;7.35;2.85;;;20.10;99.90;;;;;;5070827;28;20379;-73
2022/08/30 07:04:23;;;;;;;6.57;2.70;;;20.60;99.90;;;;;;5084054;28;20601;-74
2022/08/30 07:06:49;;;;;;;6.88;2.90;;;21.00;99.90;;;;;;5043602;28;20036;-77
2022/08/30 07:09:15;;;;;;;7.50;2.90;;;21.70;99.90;;;;;;5047135;28;20084;-75
2022/08/30 07:11:41;;;;;;;7.57;3.17;;;21.50;99.90;;;;;;5066931;28;20036;-74
2022/08/30 07:14:07;;;;;;;6.70;2.58;;;21.30;98.50;;;;;;5051513;28;20060;-75
2022/08/30 07:16:33;;;;;;;5.70;2.20;;;21.20;99.90;;;;;;5054575;28;20390;-74
2022/08/30 07:19:03;;;;;;;7.35;2.10;;;21.40;99.90;;;;;;5043211;28;20037;-74
2022/08/30 07:21:38;;;;;;;6.68;2.00;;;21.60;99.00;;;;;;5052203;28;20060;-74
2022/08/30 07:24:05;;;;;;;6.55;2.00;;;22.40;98.00;;;;;;5049212;28;20071;-75
2022/08/30 07:26:48;;;;;;;6.80;2.17;;;23.40;95.50;;;;;;5050511;28;20049;-74
2022/08/30 07:29:15;;;;;;;6.20;2.33;;;22.80;94.30;;;;;;5040894;28;20106;-74
2022/08/30 07:31:41;;;;;;;7.22;2.08;;;22.50;94.80;;;;;;5050594;28;20060;-72
2022/08/30 07:34:07;;;;;;;6.10;2.03;;;22.10;94.90;;;;;;5042492;28;20468;-73
2022/08/30 07:36:35;;;;;;;7.68;2.10;;;21.40;96.00;;;;;;5051383;28;20356;-73
2022/08/30 07:39:02;;;;;;;4.50;1.90;;;21.20;96.60;;;;;;5045483;28;20102;-75
2022/08/30 07:41:34;;;;;;;5.25;1.95;;;20.90;96.90;;;;;;5051933;28;20073;-73
2022/08/30 07:44:00;;;;;;;5.97;2.20;;;21.00;97.80;;;;;;5055405;28;20044;-74
2022/08/30 07:46:26;;;;;;;6.72;2.10;;;21.50;97.50;;;;;;5057903;28;20040;-75
2022/08/30 07:48:54;;;;;;;6.28;1.77;;;21.80;94.90;;;;;;5070726;28;20047;-76
2022/08/30 07:51:22;;;;;;;5.88;1.73;;;22.00;94.80;;;;;;5058938;28;20094;-74
2022/08/30 07:53:48;;;;;;;5.10;1.70;;;21.80;93.60;;;;;;5040659;28;20468;-71
2022/08/30 07:56:14;;;;;;;6.38;1.85;;;21.60;94.40;;;;;;5066106;28;20044;-75
2022/08/30 07:58:40;;;;;;;4.85;1.67;;;21.60;94.40;;;;;;5003364;28;20041;-77
2022/08/30 08:01:08;;;;;;;5.90;1.80;;;21.20;94.10;;;;;;5075219;28;20032;-74
2022/08/30 08:03:35;;;;;;;5.13;1.67;;;20.60;94.90;;;;;;5043417;28;20045;-74
2022/08/30 08:06:04;;;;;;;6.55;2.10;;;20.90;95.70;;;;;;5042726;28;20147;-75
2022/08/30 08:08:31;;;;;;;5.70;1.70;;;21.10;95.30;;;;;;5039427;28;20123;-74
2022/08/30 08:10:57;;;;;;;5.60;1.75;;;21.00;94.90;;;;;;5037257;28;20040;-75
2022/08/30 08:13:23;;;;;;;5.22;1.88;;;21.40;95.50;;;;;;5041514;28;20397;-74
2022/08/30 08:15:49;;;;;;;5.43;2.03;;;21.80;94.40;;;;;;5044366;28;20053;-71
2022/08/30 08:18:15;;;;;;;6.57;1.65;;;22.10;94.00;;;;;;5069010;28;20149;-75
2022/08/30 08:20:41;;;;;;;5.90;1.80;;;22.10;93.20;;;;;;5056932;28;20519;-77
2022/08/30 08:23:07;;;;;;;4.32;1.60;;;21.90;93.20;;;;;;5049790;28;20088;-75
2022/08/30 08:25:38;;;;;;;6.45;1.90;;;21.40;93.40;;;;;;5044033;28;20049;-73
2022/08/30 08:28:04;;;;;;;5.33;1.80;;;21.50;93.70;;;;;;5074040;28;20045;-74
2022/08/30 08:30:33;;;;;;;4.43;1.40;;;21.50;93.20;;;;;;5037439;28;20431;-74
2022/08/30 08:32:59;;;;;;;5.50;1.60;;;21.40;94.00;;;;;;5034141;28;20523;-76
2022/08/30 08:35:25;;;;;;;4.78;1.90;;;21.30;92.70;;;;;;5044299;28;20041;-75
2022/08/30 08:37:51;;;;;;;7.53;2.00;;;21.10;92.90;;;;;;5053275;28;20109;-74
2022/08/30 08:40:18;;;;;;;6.45;1.70;;;21.10;93.40;;;;;;5074742;28;20044;-75
2022/08/30 08:43:13;;;;;;;5.72;1.60;;;21.40;93.40;;;;;;5055713;28;20102;-72
2022/08/30 08:45:41;;;;;;;4.70;1.70;;;22.00;91.80;;;;;;5046779;28;20044;-75
2022/08/30 08:48:31;;;;;;;4.57;1.70;;;21.70;90.50;;;;;;5051286;28;20056;-73
2022/08/30 08:54:01;;;;;;;4.22;1.50;;;21.70;90.40;;;;;;5046169;28;20357;-73
2022/08/30 08:56:27;;;;;;;5.97;1.70;;;21.90;90.70;;;;;;5051524;28;20043;-74
2022/08/30 08:58:55;;;;;;;5.28;1.63;;;21.90;90.40;;;;;;5044501;28;20047;-76
2022/08/30 09:01:27;;;;;;;3.83;1.50;;;21.80;88.70;;;;;;5088172;28;20203;-73
2022/08/30 09:03:56;;;;;;;5.20;1.55;;;21.80;90.40;;;;;;5062442;28;20052;-82
2022/08/30 09:06:44;;;;;;;3.88;1.48;;;22.30;89.30;;;;;;5049474;28;20502;-74
2022/08/30 09:09:11;;;;;;;4.90;1.55;;;22.50;88.00;;;;;;5052374;28;20143;-77
2022/08/30 09:11:39;;;;;;;4.20;1.52;;;22.50;87.60;;;;;;5050797;28;20046;-74
2022/08/30 09:14:11;;;;;;;4.80;1.60;;;22.70;83.80;;;;;;5049830;28;20048;-74
2022/08/30 09:16:50;;;;;;;4.22;1.40;;;23.00;82.70;;;;;;5069789;28;20060;-73
2022/08/30 09:19:31;;;;;;;4.38;1.60;;;23.20;81.60;;;;;;5052697;28;20109;-73
2022/08/30 09:21:59;;;;;;;5.50;1.55;;;23.20;80.00;;;;;;5066386;28;20041;-74
2022/08/30 09:24:25;;;;;;;5.47;1.60;;;23.30;79.80;;;;;;5046383;28;20045;-76
2022/08/30 09:26:51;;;;;;;5.55;1.63;;;23.10;81.50;;;;;;5050789;28;20055;-76
2022/08/30 09:29:18;;;;;;;6.28;1.50;;;23.40;80.50;;;;;;5067962;28;20379;-75
2022/08/30 09:31:52;;;;;;;6.47;1.77;;;23.50;77.20;;;;;;5064018;28;20043;-74
2022/08/30 09:34:22;;;;;;;4.78;1.55;;;23.50;74.90;;;;;;5058751;28;20052;-74
2022/08/30 09:36:54;;;;;;;5.05;1.58;;;23.40;77.30;;;;;;5079807;28;20047;-73
2022/08/30 09:39:34;;;;;;;5.72;1.52;;;23.10;77.20;;;;;;5077578;28;20039;-75
2022/08/30 09:42:19;;;;;;;5.32;1.48;;;23.10;75.40;;;;;;5069730;28;20379;-74
2022/08/30 09:44:45;;;;;;;4.20;1.40;;;22.80;75.10;;;;;;5056325;28;20043;-73
2022/08/30 09:47:26;;;;;;;3.80;1.15;;;22.70;74.80;;;;;;5056813;28;20041;-76
2022/08/30 09:50:06;;;;;;;4.15;1.40;;;22.90;75.20;;;;;;5047028;28;20367;-74
2022/08/30 09:52:38;;;;;;;3.67;1.35;;;22.70;75.20;;;;;;5051389;28;20103;-76
2022/08/30 09:55:13;;;;;;;;;;;22.80;74.60;;;;;;5067850;28;20079;-77
2022/08/30 09:57:45;;;;;;;4.13;1.40;;;23.10;75.80;;;;;;5050263;28;19916;-78
2022/08/30 10:00:30;;;;;;;4.93;1.50;;;23.20;74.80;;;;;;5052055;28;20119;-75
2022/08/30 10:03:17;;;;;;;5.15;1.52;;;23.40;75.00;;;;;;5052715;28;20040;-76
2022/08/30 10:05:52;;;;;;;5.63;1.40;;;23.60;72.50;;;;;;5065876;28;20119;-74
2022/08/30 10:08:29;;;;;;;6.22;1.75;;;23.60;72.90;;;;;;5039288;28;20119;-75
2022/08/30 10:11:20;;;;;;;4.43;1.50;;;23.40;70.80;;;;;;5046415;28;20418;-74
2022/08/30 10:14:18;;;;;;;3.63;1.30;;;23.40;71.90;;;;;;5044852;28;20079;-75
2022/08/30 10:17:19;;;;;;;4.70;1.35;;;23.70;68.60;;;;;;5013696;28;20458;-74
2022/08/30 10:20:09;;;;;;;4.75;1.35;;;23.40;66.20;;;;;;5057519;28;20052;-75
2022/08/30 10:22:45;;;;;;;5.00;1.50;;;23.50;69.10;;;;;;5083867;28;20044;-73
2022/08/30 10:25:25;;;;;;;5.38;1.58;;;23.70;69.70;;;;;;5057400;28;20120;-76
2022/08/30 10:28:02;;;;;;;3.45;1.20;;;24.00;67.40;;;;;;5040799;28;20044;-75
2022/08/30 10:30:31;;;;;;;4.10;1.38;;;24.40;65.40;;;;;;5052084;28;20048;-74
2022/08/30 10:33:06;;;;;;;4.20;1.50;;;23.90;64.00;;;;;;5054844;28;20048;-76
2022/08/30 10:35:38;;;;;;;4.13;1.58;;;23.80;65.00;;;;;;5054890;28;20772;-76
2022/08/30 10:38:17;;;;;;;4.50;1.50;;;23.80;64.10;;;;;;5057709;28;20036;-76
2022/08/30 10:44:19;;;;;;;4.22;1.40;;;24.10;63.50;;;;;;5064329;28;20081;-75
2022/08/30 10:47:17;;;;;;;4.53;1.50;;;24.00;64.00;;;;;;5038473;28;20381;-75
2022/08/30 10:49:47;;;;;;;4.35;1.40;;;23.90;64.90;;;;;;5030288;28;20092;-75
2022/08/30 10:52:34;;;;;;;4.60;1.40;;;24.20;62.90;;;;;;5055191;28;20118;-75
2022/08/30 10:55:16;;;;;;;4.10;1.48;;;24.30;60.40;;;;;;5067650;28;20052;-76
2022/08/30 10:57:44;;;;;;;4.82;1.50;;;24.20;60.90;;;;;;5069666;28;20097;-74
2022/08/30 11:00:15;;;;;;;4.40;1.52;;;24.10;60.00;;;;;;5072481;28;20123;-78
2022/08/30 11:03:09;;;;;;;4.55;1.30;;;23.90;59.60;;;;;;5068095;28;20047;-73
2022/08/30 11:06:04;;;;;;;3.42;1.30;;;24.00;59.00;;;;;;5059820;28;20450;-75
2022/08/30 11:08:44;;;;;;;3.92;1.50;;;23.70;57.30;;;;;;5076050;28;20048;-73
2022/08/30 11:11:29;;;;;;;4.60;1.30;;;23.70;60.10;;;;;;5068670;28;20104;-73
2022/08/30 11:13:55;;;;;;;4.65;1.50;;;23.80;61.40;;;;;;5067604;28;20387;-79
2022/08/30 11:16:34;;;;;;;4.00;1.30;;;24.00;62.00;;;;;;5073554;28;20119;-73
2022/08/30 11:19:00;;;;;;;4.30;1.27;;;24.20;62.70;;;;;;5067044;28;20040;-76
2022/08/30 11:21:37;;;;;;;3.95;1.30;;;24.20;62.50;;;;;;5068642;28;20044;-75
2022/08/30 11:24:16;;;;;;;3.88;1.10;;;23.90;62.90;;;;;;5042641;28;20075;-74
2022/08/30 11:26:48;;;;;;;2.83;1.10;;;23.80;61.70;;;;;;5036852;28;20047;-74
2022/08/30 11:29:28;;;;;;;4.80;1.40;;;24.00;61.90;;;;;;5043746;28;20052;-76
2022/08/30 11:31:59;;;;;;;3.75;1.20;;;24.20;61.40;;;;;;5073408;28;20044;-75
2022/08/30 11:34:44;;;;;;;6.07;1.48;;;24.40;61.70;;;;;;5045286;28;20110;-73
2022/08/30 11:37:29;;;;;;;3.08;1.13;;;24.50;61.50;;;;;;5081365;28;20459;-74
2022/08/30 11:39:58;;;;;;;3.17;1.20;;;24.50;62.20;;;;;;5054313;28;20039;-74
2022/08/30 11:42:35;;;;;;;3.80;1.27;;;24.50;60.60;;;;;;5073678;28;20123;-73
2022/08/30 11:45:22;;;;;;;4.32;1.13;;;24.50;60.90;;;;;;5068554;28;20047;-73
2022/08/30 11:47:57;;;;;;;4.90;1.20;;;24.30;61.00;;;;;;5066186;28;20360;-76
2022/08/30 11:50:32;;;;;;;4.93;1.40;;;24.40;60.20;;;;;;5063963;28;20052;-77
2022/08/30 11:53:04;;;;;;;4.60;1.20;;;24.10;60.60;;;;;;5051960;28;20040;-75
2022/08/30 11:55:37;;;;;;;3.22;1.05;;;24.10;62.00;;;;;;5071531;28;20044;-75
2022/08/30 11:58:28;;;;;;;3.55;1.20;;;24.20;61.40;;;;;;5076209;28;20036;-76
2022/08/30 12:01:17;;;;;;;5.03;1.10;;;24.40;60.00;;;;;;5061675;28;20039;-78
2022/08/30 12:03:43;;;;;;;3.65;1.20;;;24.20;60.10;;;;;;5054877;28;20317;-74
2022/08/30 12:06:11;;;;;;;5.20;1.30;;;23.70;60.70;;;;;;5067563;28;20052;-78
2022/08/30 12:08:47;;;;;;;2.72;1.10;;;23.60;61.30;;;;;;5085421;28;20052;-73
2022/08/30 12:11:13;;;;;;;3.42;1.20;;;23.70;61.20;;;;;;5062786;28;20493;-78
2022/08/30 12:13:41;;;;;;;5.00;1.30;;;23.80;60.60;;;;;;5048269;28;20041;-77
2022/08/30 12:16:20;;;;;;;4.65;1.17;;;24.00;60.30;;;;;;5047628;28;20037;-75
2022/08/30 12:18:54;;;;;;;3.25;1.10;;;23.50;60.60;;;;;;5041621;28;20466;-73
2022/08/30 12:21:19;;;;;;;4.68;1.30;;;23.60;61.40;;;;;;5064292;28;20479;-75
2022/08/30 12:23:49;;;;;;;3.25;1.10;;;23.90;61.90;;;;;;5064105;28;20178;-74
2022/08/30 12:26:23;;;;;;;4.60;1.02;;;24.10;60.40;;;;;;5059247;28;20047;-76
2022/08/30 12:28:51;;;;;;;2.75;1.00;;;24.20;58.00;;;;;;5030525;28;20041;-73
2022/08/30 12:31:21;;;;;;;3.60;1.33;;;24.40;58.10;;;;;;5050729;28;20044;-76
2022/08/30 12:33:55;;;;;;;4.47;1.20;;;24.40;58.30;;;;;;5046135;28;20057;-73
2022/08/30 12:37:09;;;;;;;2.72;1.10;;;24.60;59.40;;;;;;5047665;28;20036;-72
2022/08/30 12:39:41;;;;;;;4.38;1.13;;;24.50;59.90;;;;;;5046109;28;20052;-75
2022/08/30 12:42:22;;;;;;;3.22;1.25;;;24.40;60.60;;;;;;5047991;28;20052;-76
2022/08/30 12:44:51;;;;;;;4.35;1.00;;;24.50;60.70;;;;;;5064186;28;20048;-76
2022/08/30 12:47:24;;;;;;;3.22;1.17;;;24.70;59.60;;;;;;5072096;28;20051;-78
2022/08/30 12:49:51;;;;;;;3.22;1.15;;;24.80;59.00;;;;;;5065153;28;20482;-75
2022/08/30 12:52:24;;;;;;;5.07;1.00;;;24.80;60.20;;;;;;5060064;28;20036;-78
2022/08/30 12:54:52;;;;;;;4.70;1.02;;;24.70;61.00;;;;;;5053719;28;20040;-74
2022/08/30 12:57:43;;;;;;;4.45;1.23;;;24.70;61.20;;;;;;5068202;28;20036;-74
2022/08/30 13:00:24;;;;;;;4.68;1.00;;;24.40;61.40;;;;;;5067553;28;20112;-74
2022/08/30 13:02:52;;;;;;;2.95;1.10;;;24.40;61.20;;;;;;5051158;28;20039;-76
2022/08/30 13:05:37;;;;;;;3.97;1.20;;;24.10;61.80;;;;;;5045450;28;20043;-76